createdAt,value
2022-09-02T00:01:25.412Z,100938.72
2022-09-02T00:03:55.885Z,100944.50
2022-09-02T00:06:22.542Z,100899.28
2022-09-02T00:08:49.446Z,100867.44
2022-09-02T00:11:20.013Z,100951.78
2022-09-02T00:13:47.224Z,100745.69
2022-09-02T00:16:14.446Z,100917.19
2022-09-02T00:18:44.865Z,100944.44
2022-09-02T00:21:14.227Z,100934.16
2022-09-02T00:23:41.998Z,100916.66
2022-09-02T00:26:09.187Z,100940.75
2022-09-02T00:28:35.869Z,100930.44
2022-09-02T00:31:02.735Z,100916.28
2022-09-02T00:33:29.635Z,100925.22
2022-09-02T00:35:59.177Z,100781.22
2022-09-02T00:38:25.647Z,100926.13
2022-09-02T00:40:52.167Z,100930.41
2022-09-02T00:43:37.563Z,100935.75
2022-09-02T00:46:04.177Z,100835.59
2022-09-02T00:48:31.485Z,100916.06
2022-09-02T00:50:58.064Z,100936.31
2022-09-02T00:53:26.180Z,100881.59
2022-09-02T00:55:52.747Z,100920.38
2022-09-02T00:58:22.484Z,100926.22
2022-09-02T01:00:56.557Z,100914.34
2022-09-02T01:03:26.970Z,100920.53
2022-09-02T01:05:55.866Z,100917.19
2022-09-02T01:08:45.770Z,100820.88
2022-09-02T01:11:12.826Z,100910.47
2022-09-02T01:13:42.984Z,100833.16
2022-09-02T01:16:15.403Z,100925.09
2022-09-02T01:18:47.082Z,100915.13
2022-09-02T01:21:14.678Z,100862.25
2022-09-02T01:23:41.301Z,100874.63
2022-09-02T01:26:09.235Z,100909.59
2022-09-02T01:28:35.795Z,100918.72
2022-09-02T01:31:02.408Z,100913.97
2022-09-02T01:33:29.421Z,100791.31
2022-09-02T01:35:58.513Z,100878.81
2022-09-02T01:38:25.523Z,100870.06
2022-09-02T01:40:52.657Z,100888.88
2022-09-02T01:43:23.323Z,100911.53
2022-09-02T01:45:54.234Z,100905.63
2022-09-02T01:48:21.702Z,100833.81
2022-09-02T01:50:56.247Z,100912.69
2022-09-02T01:53:23.269Z,100909.38
2022-09-02T01:55:49.860Z,100894.72
2022-09-02T01:58:16.551Z,100891.38
2022-09-02T02:00:43.283Z,100892.88
2022-09-02T02:03:09.802Z,100857.53
2022-09-02T02:05:36.820Z,100866.84
2022-09-02T02:08:03.854Z,100853.31
2022-09-02T02:10:30.653Z,100902.22
2022-09-02T02:12:57.033Z,100866.63
2022-09-02T02:17:49.285Z,100915.75
2022-09-02T02:20:18.008Z,100909.22
2022-09-02T02:22:44.916Z,100799.84
2022-09-02T02:25:12.213Z,100916.63
2022-09-02T02:27:39.119Z,100858.22
2022-09-02T02:30:12.375Z,100897.72
2022-09-02T02:32:39.116Z,100864.50
2022-09-02T02:35:06.574Z,100872.28
2022-09-02T02:37:33.045Z,100897.75
2022-09-02T02:39:59.463Z,100901.75
2022-09-02T02:42:26.104Z,100871.03
2022-09-02T02:44:52.532Z,100891.28
2022-09-02T02:47:19.218Z,100891.56
2022-09-02T02:49:45.823Z,100884.06
2022-09-02T02:52:12.915Z,100904.78
2022-09-02T02:54:40.604Z,100894.91
2022-09-02T02:57:08.714Z,100898.91
2022-09-02T02:59:36.915Z,100898.25
2022-09-02T03:02:05.285Z,100883.31
2022-09-02T03:04:32.148Z,100890.34
2022-09-02T03:06:58.545Z,100864.31
2022-09-02T03:09:25.542Z,100874.19
2022-09-02T03:11:51.995Z,100855.16
2022-09-02T03:14:18.939Z,100797.09
2022-09-02T03:16:45.365Z,100839.59
2022-09-02T03:19:14.125Z,100890.56
2022-09-02T03:21:42.312Z,100843.75
2022-09-02T03:24:10.385Z,100873.72
2022-09-02T03:26:37.007Z,100888.28
2022-09-02T03:29:04.619Z,100713.81
2022-09-02T03:31:31.130Z,100842.22
2022-09-02T03:33:57.776Z,100801.47
2022-09-02T03:36:38.577Z,100848.66
2022-09-02T03:39:10.046Z,100859.34
2022-09-02T03:41:37.112Z,100883.31
2022-09-02T03:44:03.819Z,100783.78
2022-09-02T03:46:30.340Z,100854.78
2022-09-02T03:48:56.837Z,100743.88
2022-09-02T03:51:24.105Z,100802.63
2022-09-02T03:53:50.828Z,100747.47
2022-09-02T03:56:18.041Z,100873.59
2022-09-02T03:58:46.194Z,100870.59
2022-09-02T04:01:15.634Z,100770.97
2022-09-02T04:03:42.796Z,100863.44
2022-09-02T04:06:11.914Z,100872.66
2022-09-02T04:08:44.897Z,100770.09
2022-09-02T04:11:17.783Z,100865.63
2022-09-02T04:13:46.658Z,100744.41
2022-09-02T04:16:16.918Z,100843.16
2022-09-02T04:18:43.622Z,100675.44
2022-09-02T04:21:25.863Z,100792.72
2022-09-02T04:23:52.702Z,100848.41
2022-09-02T04:26:20.714Z,100859.97
2022-09-02T04:28:49.453Z,100835.44
2022-09-02T04:31:19.142Z,100856.19
2022-09-02T04:33:46.362Z,100871.41
2022-09-02T04:36:16.072Z,100748.94
2022-09-02T04:38:43.164Z,100730.03
2022-09-02T04:41:16.344Z,100862.81
2022-09-02T04:43:42.932Z,100840.66
2022-09-02T04:46:12.469Z,100862.75
2022-09-02T04:48:39.630Z,100859.44
2022-09-02T04:51:09.122Z,100861.13
2022-09-02T04:53:36.075Z,100852.44
2022-09-02T04:56:07.959Z,100851.56
2022-09-02T04:58:35.580Z,100815.09
2022-09-02T05:01:26.933Z,100787.31
2022-09-02T05:03:54.238Z,100670.34
2022-09-02T05:09:14.291Z,100826.94
2022-09-02T05:11:40.860Z,100826.44
2022-09-02T05:14:07.951Z,100721.41
2022-09-02T05:16:38.170Z,100785.81
2022-09-02T05:19:11.383Z,100787.50
2022-09-02T05:21:50.694Z,100760.44
2022-09-02T05:24:17.910Z,100794.88
2022-09-02T05:26:44.789Z,100861.91
2022-09-02T05:29:13.024Z,100865.94
2022-09-02T05:31:41.720Z,100795.66
2022-09-02T05:34:08.482Z,100870.47
2022-09-02T05:36:35.191Z,100735.78
2022-09-02T05:39:02.260Z,100869.44
2022-09-02T05:41:34.269Z,100850.84
2022-09-02T05:44:03.599Z,100860.22
2022-09-02T05:46:32.066Z,100713.88
2022-09-02T05:49:07.674Z,100798.31
2022-09-02T05:51:59.181Z,100853.03
2022-09-02T05:54:30.054Z,100825.69
2022-09-02T05:57:01.579Z,100797.66
2022-09-02T05:59:38.275Z,100673.28
2022-09-02T06:02:07.997Z,100781.09
2022-09-02T06:04:44.644Z,100797.09
2022-09-02T06:07:14.149Z,100847.28
2022-09-02T06:09:41.184Z,100670.09
2022-09-02T06:12:11.495Z,100840.91
2022-09-02T06:14:38.171Z,100721.25
2022-09-02T06:17:05.561Z,100851.59
2022-09-02T06:19:33.682Z,100845.69
2022-09-02T06:22:07.430Z,100847.59
2022-09-02T06:24:39.777Z,100854.53
2022-09-02T06:27:07.375Z,100662.97
2022-09-02T06:29:33.984Z,100789.38
2022-09-02T06:32:00.597Z,100816.59
2022-09-02T06:34:29.390Z,100718.28
2022-09-02T06:36:59.043Z,100837.91
2022-09-02T06:39:26.035Z,100850.38
2022-09-02T06:41:54.527Z,100801.19
2022-09-02T06:44:21.857Z,100825.38
2022-09-02T06:46:57.162Z,100734.94
2022-09-02T06:49:25.311Z,100802.72
2022-09-02T06:51:56.433Z,100712.16
2022-09-02T06:54:23.938Z,100758.34
2022-09-02T06:56:52.209Z,100719.66
2022-09-02T06:59:23.421Z,100748.53
2022-09-02T07:01:53.474Z,100814.13
2022-09-02T07:04:42.652Z,100774.22
2022-09-02T07:07:09.334Z,100661.69
2022-09-02T07:09:36.060Z,100808.97
2022-09-02T07:12:06.091Z,100711.28
2022-09-02T07:14:47.208Z,100645.44
2022-09-02T07:17:21.999Z,100691.72
2022-09-02T07:19:49.590Z,100777.44
2022-09-02T07:22:18.044Z,100651.44
2022-09-02T07:24:45.781Z,100745.78
2022-09-02T07:30:49.655Z,100711.28
2022-09-02T07:33:17.583Z,100794.88
2022-09-02T07:35:46.010Z,100768.06
2022-09-02T07:38:12.940Z,100780.59
2022-09-02T07:40:44.308Z,100791.97
2022-09-02T07:43:11.609Z,100741.97
2022-09-02T07:45:38.799Z,100638.47
2022-09-02T07:48:12.012Z,100795.44
2022-09-02T07:50:41.306Z,100727.69
2022-09-02T07:53:08.544Z,100642.25
2022-09-02T07:55:36.733Z,100684.59
2022-09-02T07:58:09.088Z,100793.16
2022-09-02T08:00:39.243Z,100627.56
2022-09-02T08:03:05.989Z,100779.72
2022-09-02T08:05:35.653Z,100825.03
2022-09-02T08:08:03.162Z,100821.47
2022-09-02T08:10:30.921Z,100665.13
2022-09-02T08:13:00.828Z,100824.44
2022-09-02T08:15:28.979Z,100784.47
2022-09-02T08:17:57.291Z,100730.00
2022-09-02T08:20:24.209Z,100822.34
2022-09-02T08:22:59.309Z,100824.47
2022-09-02T08:25:37.534Z,100815.31
2022-09-02T08:28:04.705Z,100790.94
2022-09-02T08:30:31.504Z,100809.34
2022-09-02T08:32:58.016Z,100687.06
2022-09-02T08:35:24.603Z,100813.16
2022-09-02T08:37:54.075Z,100814.84
2022-09-02T08:40:23.600Z,100815.47
2022-09-02T08:42:55.660Z,100708.41
2022-09-02T08:45:44.753Z,100787.28
2022-09-02T08:48:27.806Z,100626.97
2022-09-02T08:51:03.164Z,100743.91
2022-09-02T08:53:36.638Z,100813.94
2022-09-02T08:56:08.780Z,100800.91
2022-09-02T08:59:08.152Z,100814.53
2022-09-02T09:02:01.060Z,100812.78
2022-09-02T09:05:06.978Z,100805.88
2022-09-02T09:07:46.949Z,100711.16
2022-09-02T09:10:22.840Z,100806.63
2022-09-02T09:13:41.537Z,100692.44
2022-09-02T09:16:21.479Z,100806.25
2022-09-02T09:19:15.231Z,100659.84
2022-09-02T09:21:46.152Z,100648.66
2022-09-02T09:24:48.573Z,100792.00
2022-09-02T09:27:21.007Z,100758.53
2022-09-02T09:29:49.447Z,100744.25
2022-09-02T09:32:29.064Z,100711.63
2022-09-02T09:35:07.749Z,100796.41
2022-09-02T09:37:48.381Z,100783.59
2022-09-02T09:40:21.184Z,100781.31
2022-09-02T09:43:56.112Z,100776.44
2022-09-02T09:46:17.776Z,100584.31
2022-09-02T09:48:49.922Z,100713.31
2022-09-02T09:51:16.497Z,100649.53
2022-09-02T09:53:44.028Z,100751.28
2022-09-02T09:56:13.496Z,100711.53
2022-09-02T09:58:39.922Z,100729.31
2022-09-02T10:01:22.844Z,100677.00
2022-09-02T10:04:32.373Z,100769.94
2022-09-02T10:06:55.744Z,100752.16
2022-09-02T10:09:32.851Z,100737.03
2022-09-02T10:12:12.714Z,100774.91
2022-09-02T10:14:44.238Z,100699.19
2022-09-02T10:17:33.771Z,100760.34
2022-09-02T10:20:07.422Z,100769.19
2022-09-02T10:23:16.405Z,100713.88
2022-09-02T10:25:52.023Z,100757.63
2022-09-02T10:28:29.623Z,100760.69
2022-09-02T10:31:11.427Z,100752.69
2022-09-02T10:34:25.002Z,100749.41
2022-09-02T10:37:03.689Z,100741.94
2022-09-02T10:39:55.942Z,100739.56
2022-09-02T10:42:30.102Z,100707.84
2022-09-02T10:45:09.715Z,100718.63
2022-09-02T10:47:38.798Z,100727.78
2022-09-02T10:50:17.970Z,100657.75
2022-09-02T10:53:20.842Z,100712.75
2022-09-02T10:55:59.582Z,100718.69
2022-09-02T10:58:55.269Z,100687.69
2022-09-02T11:01:28.224Z,100709.38
2022-09-02T11:03:57.719Z,100711.34
2022-09-02T11:06:58.624Z,100697.72
2022-09-02T11:09:39.837Z,100709.56
2022-09-02T11:12:09.393Z,100702.19
2022-09-02T11:14:58.484Z,100712.13
2022-09-02T11:17:44.956Z,100703.00
2022-09-02T11:20:34.424Z,100699.75
2022-09-02T11:23:26.905Z,100701.97
2022-09-02T11:26:09.554Z,100696.38
2022-09-02T11:28:42.391Z,100688.44
2022-09-02T11:32:06.171Z,100685.25
2022-09-02T11:34:40.359Z,100667.59
2022-09-02T11:37:10.773Z,100594.81
2022-09-02T11:40:06.659Z,100659.13
2022-09-02T11:42:52.681Z,100672.00
2022-09-02T11:45:24.904Z,100659.50
2022-09-02T11:48:20.488Z,100656.88
2022-09-02T11:51:02.418Z,100655.72
2022-09-02T11:53:30.959Z,100658.22
2022-09-02T11:56:03.222Z,100657.34
2022-09-02T11:58:39.240Z,100658.22
2022-09-02T12:01:25.030Z,100606.94
2022-09-02T12:07:09.920Z,100654.16
2022-09-02T12:09:50.430Z,100639.75
2022-09-02T12:12:36.293Z,100637.44
2022-09-02T12:15:03.797Z,100649.25
2022-09-02T12:17:53.890Z,100597.72
2022-09-02T12:20:39.420Z,100644.66
2022-09-02T12:23:08.151Z,100631.78
2022-09-02T12:25:49.192Z,100644.34
2022-09-02T12:28:27.672Z,100636.22
2022-09-02T12:31:08.601Z,100626.81
2022-09-02T12:33:37.792Z,100636.69
2022-09-02T12:36:06.724Z,100530.84
2022-09-02T12:38:40.954Z,100592.00
2022-09-02T12:41:15.226Z,100588.09
2022-09-02T12:43:53.709Z,100518.59
2022-09-02T12:46:54.677Z,100601.41
2022-09-02T12:49:38.636Z,100618.56
2022-09-02T12:52:09.052Z,100559.59
2022-09-02T12:54:38.460Z,100608.44
2022-09-02T12:57:06.657Z,100584.38
2022-09-02T12:59:35.734Z,100619.97
2022-09-02T13:02:14.492Z,100609.53
2022-09-02T13:04:59.640Z,100608.16
2022-09-02T13:08:02.453Z,100600.09
2022-09-02T13:11:19.778Z,100587.31
2022-09-02T13:14:13.696Z,100596.81
2022-09-02T13:17:36.362Z,100604.56
2022-09-02T13:20:22.724Z,100602.06
2022-09-02T13:22:52.085Z,100600.75
2022-09-02T13:25:46.185Z,100598.09
2022-09-02T13:28:51.938Z,100511.91
2022-09-02T13:31:27.567Z,100587.03
2022-09-02T13:34:05.408Z,100566.53
2022-09-02T13:36:37.580Z,100484.38
2022-09-02T13:39:30.750Z,100504.38
2022-09-02T13:41:57.428Z,100522.66
2022-09-02T13:44:29.447Z,100581.28
2022-09-02T13:47:04.841Z,100547.41
2022-09-02T13:49:40.723Z,100537.13
2022-09-02T13:52:17.007Z,100485.88
2022-09-02T13:54:46.804Z,100552.56
2022-09-02T13:57:25.974Z,100460.84
2022-09-02T13:59:56.026Z,100472.34
2022-09-02T14:02:32.232Z,100544.75
2022-09-02T14:05:04.714Z,100510.22
2022-09-02T14:07:37.673Z,100454.75
2022-09-02T14:10:08.759Z,100463.91
2022-09-02T14:12:37.750Z,100544.09
2022-09-02T14:15:12.667Z,100478.13
2022-09-02T14:17:39.094Z,100464.44
2022-09-02T14:20:22.467Z,100533.28
2022-09-02T14:22:57.574Z,100523.13
2022-09-02T14:25:27.545Z,100426.34
2022-09-02T14:28:00.609Z,100406.06
2022-09-02T14:30:37.593Z,100513.28
2022-09-02T14:33:22.268Z,100518.16
2022-09-02T14:36:07.261Z,100512.50
2022-09-02T14:38:44.817Z,100501.66
2022-09-02T14:41:12.361Z,100501.88
2022-09-02T14:43:45.976Z,100509.59
2022-09-02T14:46:31.506Z,100501.78
2022-09-02T14:49:04.422Z,100475.34
2022-09-02T14:51:46.332Z,100493.31
2022-09-02T14:54:32.822Z,100487.75
2022-09-02T14:56:59.349Z,100485.16
2022-09-02T14:59:25.844Z,100479.56
2022-09-02T15:01:54.611Z,100486.31
2022-09-02T15:04:21.126Z,100471.81
2022-09-02T15:06:48.353Z,100481.59
2022-09-02T15:09:16.491Z,100484.31
2022-09-02T15:11:48.070Z,100464.03
2022-09-02T15:14:14.578Z,100468.59
2022-09-02T15:16:41.144Z,100434.47
2022-09-02T15:19:07.673Z,100452.91
2022-09-02T15:21:34.134Z,100428.41
2022-09-02T15:24:00.594Z,100390.78
2022-09-02T15:26:27.102Z,100476.94
2022-09-02T15:28:56.051Z,100474.56
2022-09-02T15:31:22.723Z,100475.53
2022-09-02T15:33:51.559Z,100446.22
2022-09-02T15:36:18.907Z,100402.78
2022-09-02T15:38:45.416Z,100437.28
2022-09-02T15:41:17.735Z,100428.47
2022-09-02T15:43:45.978Z,100459.53
2022-09-02T15:46:27.764Z,100385.97
2022-09-02T15:49:00.218Z,100464.06
2022-09-02T15:51:28.712Z,100445.66
2022-09-02T15:54:03.920Z,100373.81
2022-09-02T15:56:32.093Z,100424.81
2022-09-02T15:59:00.998Z,100455.94
2022-09-02T16:01:30.042Z,100433.25
2022-09-02T16:03:57.819Z,100436.84
2022-09-02T16:06:25.074Z,100379.53
2022-09-02T16:08:51.892Z,100427.84
2022-09-02T16:11:18.984Z,100419.25
2022-09-02T16:13:45.506Z,100446.66
2022-09-02T16:16:16.233Z,100449.03
2022-09-02T16:18:44.314Z,100430.44
2022-09-02T16:21:12.627Z,100384.94
2022-09-02T16:23:39.480Z,100439.72
2022-09-02T16:26:32.310Z,100434.38
2022-09-02T16:29:01.342Z,100441.16
2022-09-02T16:31:30.344Z,100428.69
2022-09-02T16:34:01.945Z,100424.16
2022-09-02T16:36:33.077Z,100419.78
2022-09-02T16:39:00.989Z,100420.94
2022-09-02T16:41:36.446Z,100334.38
2022-09-02T16:44:05.593Z,100365.47
2022-09-02T16:46:33.633Z,100418.56
2022-09-02T16:49:00.221Z,100393.88
2022-09-02T16:51:27.721Z,100398.28
2022-09-02T16:54:00.261Z,100398.09
2022-09-02T16:56:27.713Z,100417.56
2022-09-02T16:58:54.706Z,100419.22
2022-09-02T17:01:23.152Z,100396.22
2022-09-02T17:03:50.679Z,100416.16
2022-09-02T17:06:17.782Z,100407.69
2022-09-02T17:08:44.331Z,100423.75
2022-09-02T17:11:28.998Z,100423.25
2022-09-02T17:14:01.574Z,100423.91
2022-09-02T17:16:31.382Z,100416.97
2022-09-02T17:18:58.285Z,100387.16
2022-09-02T17:21:29.947Z,100426.56
2022-09-02T17:23:56.578Z,100413.00
2022-09-02T17:26:27.939Z,100398.28
2022-09-02T17:28:57.510Z,100402.34
2022-09-02T17:31:30.392Z,100416.03
2022-09-02T17:33:59.548Z,100402.50
2022-09-02T17:36:28.747Z,100409.25
2022-09-02T17:38:57.077Z,100357.16
2022-09-02T17:41:43.763Z,100422.22
2022-09-02T17:44:11.542Z,100408.44
2022-09-02T17:46:38.228Z,100387.22
2022-09-02T17:49:18.783Z,100413.66
2022-09-02T17:51:46.571Z,100360.25
2022-09-02T17:54:14.598Z,100390.59
2022-09-02T17:56:56.309Z,100412.53
2022-09-02T18:00:02.426Z,100410.25
2022-09-02T18:02:48.570Z,100402.16
2022-09-02T18:05:36.789Z,100375.06
2022-09-02T18:08:15.310Z,100416.44
2022-09-02T18:10:58.295Z,100380.97
2022-09-02T18:13:34.055Z,100414.75
2022-09-02T18:16:23.279Z,100412.25
2022-09-02T18:19:23.204Z,100395.25
2022-09-02T18:21:58.746Z,100414.66
2022-09-02T18:24:55.198Z,100406.84
2022-09-02T18:27:58.240Z,100395.31
2022-09-02T18:30:29.309Z,100405.28
2022-09-02T18:33:17.501Z,100417.22
2022-09-02T18:36:10.220Z,100417.00
2022-09-02T18:38:40.869Z,100413.31
2022-09-02T18:41:22.930Z,100419.97
2022-09-02T18:44:10.105Z,100425.34
2022-09-02T18:46:52.802Z,100420.91
2022-09-02T18:49:22.693Z,100417.88
2022-09-02T18:51:54.747Z,100421.84
2022-09-02T18:54:25.185Z,100442.78
2022-09-02T18:56:57.388Z,100413.09
2022-09-02T18:59:49.426Z,100435.41
2022-09-02T19:02:23.724Z,100381.31
2022-09-02T19:04:50.512Z,100419.09
2022-09-02T19:07:38.791Z,100436.91
2022-09-02T19:10:06.222Z,100448.81
2022-09-02T19:12:35.969Z,100449.66
2022-09-02T19:15:06.327Z,100360.34
2022-09-02T19:17:32.725Z,100449.41
2022-09-02T19:19:59.122Z,100436.50
2022-09-02T19:22:28.199Z,100412.06
2022-09-02T19:25:07.495Z,100456.19
2022-09-02T19:27:37.501Z,100452.22
2022-09-02T19:30:07.977Z,100419.16
2022-09-02T19:32:36.624Z,100375.63
2022-09-02T19:35:09.923Z,100456.94
2022-09-02T19:37:44.616Z,100415.19
2022-09-02T19:40:12.329Z,100414.34
2022-09-02T19:42:38.845Z,100443.75
2022-09-02T19:45:05.666Z,100432.75
2022-09-02T19:50:20.619Z,100414.31
2022-09-02T19:52:49.657Z,100393.72
2022-09-02T19:55:18.231Z,100454.50
2022-09-02T19:57:45.882Z,100402.13
2022-09-02T20:00:13.559Z,100402.84
2022-09-02T20:02:40.773Z,100361.09
2022-09-02T20:05:11.458Z,100387.13
2022-09-02T20:07:38.638Z,100444.66
2022-09-02T20:10:07.122Z,100449.69
2022-09-02T20:12:35.835Z,100438.28
2022-09-02T20:15:04.894Z,100447.63
2022-09-02T20:17:31.757Z,100392.94
2022-09-02T20:20:02.625Z,100429.53
2022-09-02T20:22:31.059Z,100436.84
2022-09-02T20:24:58.329Z,100424.25
2022-09-02T20:27:40.067Z,100339.19
2022-09-02T20:30:16.167Z,100444.81
2022-09-02T20:33:14.121Z,100410.25
2022-09-02T20:35:46.555Z,100448.41
2022-09-02T20:38:25.114Z,100449.19
2022-09-02T20:41:02.346Z,100450.00
2022-09-02T20:44:07.308Z,100437.47
2022-09-02T20:46:59.056Z,100435.59
2022-09-02T20:49:43.636Z,100437.53
2022-09-02T20:52:14.824Z,100391.72
2022-09-02T20:54:51.777Z,100394.69
2022-09-02T20:57:39.667Z,100427.44
2022-09-02T21:00:08.270Z,100443.22
2022-09-02T21:02:42.503Z,100432.38
2022-09-02T21:05:22.506Z,100412.78
2022-09-02T21:07:58.007Z,100424.28
2022-09-02T21:10:34.346Z,100387.41
2022-09-02T21:13:10.830Z,100392.91
2022-09-02T21:15:47.773Z,100329.22
2022-09-02T21:18:32.913Z,100383.81
2022-09-02T21:21:04.646Z,100427.91
2022-09-02T21:23:41.281Z,100382.72
2022-09-02T21:26:23.380Z,100384.41
2022-09-02T21:28:58.706Z,100396.09
2022-09-02T21:31:37.400Z,100397.53
2022-09-02T21:34:38.908Z,100436.69
2022-09-02T21:37:09.397Z,100413.22
2022-09-02T21:39:41.619Z,100379.31
2022-09-02T21:42:13.927Z,100439.59
2022-09-02T21:44:59.154Z,100434.97
2022-09-02T21:47:40.109Z,100423.97
2022-09-02T21:50:47.736Z,100435.63
2022-09-02T21:53:29.435Z,100420.53
2022-09-02T21:56:24.244Z,100435.72
2022-09-02T21:59:05.007Z,100392.09
2022-09-02T22:01:44.981Z,100396.97
2022-09-02T22:04:20.598Z,100434.66
2022-09-02T22:06:52.122Z,100410.56
2022-09-02T22:09:27.692Z,100391.34
2022-09-02T22:12:01.898Z,100427.78
2022-09-02T22:14:40.629Z,100425.94
2022-09-02T22:17:51.296Z,100339.41
2022-09-02T22:20:22.041Z,100424.31
2022-09-02T22:22:54.600Z,100421.41
2022-09-02T22:25:22.555Z,100394.84
2022-09-02T22:28:10.477Z,100417.91
2022-09-02T22:30:41.259Z,100401.59
2022-09-02T22:33:12.004Z,100302.28
2022-09-02T22:35:54.227Z,100415.00
2022-09-02T22:38:30.756Z,100419.81
2022-09-02T22:41:20.160Z,100424.63
2022-09-02T22:43:53.939Z,100406.88
2022-09-02T22:46:45.975Z,100403.41
2022-09-02T22:49:34.781Z,100345.63
2022-09-02T22:52:44.019Z,100420.25
2022-09-02T22:55:18.052Z,100391.94
2022-09-02T22:58:08.598Z,100377.22
2022-09-02T23:00:46.775Z,100409.19
2022-09-02T23:03:34.086Z,100399.94
2022-09-02T23:06:17.329Z,100414.09
2022-09-02T23:08:44.386Z,100411.41
2022-09-02T23:11:28.152Z,100309.38
2022-09-02T23:14:06.947Z,100408.78
2022-09-02T23:17:18.266Z,100403.41
2022-09-02T23:20:19.776Z,100369.31
2022-09-02T23:22:49.035Z,100409.91
2022-09-02T23:25:19.045Z,100413.09
2022-09-02T23:28:47.351Z,100400.19
2022-09-02T23:31:30.610Z,100295.44
2022-09-02T23:34:13.660Z,100398.06
2022-09-02T23:36:55.075Z,100408.63
2022-09-02T23:40:12.428Z,100406.06
2022-09-02T23:45:48.944Z,100295.56
2022-09-02T23:48:28.889Z,100383.72
2022-09-02T23:51:12.996Z,100402.06
2022-09-02T23:53:44.536Z,100392.25
2022-09-02T23:56:49.387Z,100392.88
2022-09-02T23:59:53.306Z,100403.22
